Time;durP1;ratioP1;P1;durP2;ratioP2;P2;SDS_P1;SDS_P2;PMS_P1;PMS_P2;Temp;Humidity;BMP_temperature;BMP_pressure;BME280_temperature;BME280_humidity;BME280_pressure;Samples;Min_cycle;Max_cycle;Signal;HPM_P1;HPM_P2
2021/10/25 00:01:29;;;;;;;10.38;7.00;;;6.90;92.10;;;;;;5012939;28;20076;-79
2021/10/25 00:03:55;;;;;;;12.10;6.53;;;6.90;92.10;;;;;;5030853;28;20478;-79
2021/10/25 00:06:21;;;;;;;11.70;7.07;;;7.00;92.20;;;;;;5012761;28;20120;-79
2021/10/25 00:08:47;;;;;;;11.02;6.90;;;7.00;92.20;;;;;;5013029;28;20105;-79
2021/10/25 00:11:13;;;;;;;11.32;7.28;;;7.00;92.30;;;;;;5030470;28;20523;-79
2021/10/25 00:13:40;;;;;;;9.55;6.55;;;7.00;92.40;;;;;;5030771;28;20104;-79
2021/10/25 00:16:06;;;;;;;8.52;5.80;;;7.00;92.40;;;;;;5030153;28;20419;-79
2021/10/25 00:18:33;;;;;;;11.55;6.53;;;7.00;92.50;;;;;;5030384;28;20030;-78
2021/10/25 00:20:59;;;;;;;11.27;6.50;;;7.00;92.50;;;;;;5030346;28;20044;-78
2021/10/25 00:23:25;;;;;;;12.85;5.97;;;7.00;92.40;;;;;;5030415;28;20037;-78
2021/10/25 00:25:50;;;;;;;11.77;6.25;;;7.00;92.40;;;;;;5012597;28;20062;-78
2021/10/25 00:28:16;;;;;;;12.90;6.05;;;7.00;92.40;;;;;;5012911;28;20061;-78
2021/10/25 00:30:42;;;;;;;11.77;6.53;;;7.10;92.50;;;;;;5030345;28;20025;-78
2021/10/25 00:33:07;;;;;;;10.68;6.07;;;7.00;92.50;;;;;;5025690;28;20482;-78
2021/10/25 00:35:33;;;;;;;10.00;6.38;;;7.10;92.50;;;;;;4992889;28;20033;-78
2021/10/25 00:37:59;;;;;;;11.32;6.35;;;7.00;92.50;;;;;;5029941;28;20721;-78
2021/10/25 00:40:24;;;;;;;14.38;5.90;;;7.10;92.60;;;;;;5029945;28;20071;-79
2021/10/25 00:42:50;;;;;;;11.57;5.78;;;7.00;92.60;;;;;;5029992;28;20100;-78
2021/10/25 00:45:16;;;;;;;13.02;6.07;;;7.00;92.60;;;;;;4997551;28;20046;-78
2021/10/25 00:47:41;;;;;;;9.75;6.13;;;7.10;92.70;;;;;;4991781;28;20034;-78
2021/10/25 00:50:07;;;;;;;11.90;5.85;;;7.00;92.70;;;;;;5009011;28;20056;-78
2021/10/25 00:52:36;;;;;;;11.63;6.32;;;7.00;92.70;;;;;;4992550;28;20034;-79
2021/10/25 00:55:03;;;;;;;9.88;5.85;;;7.00;92.70;;;;;;5009919;28;20026;-79
2021/10/25 00:57:28;;;;;;;12.20;5.40;;;7.00;92.70;;;;;;5008696;28;20034;-79
2021/10/25 00:59:54;;;;;;;9.73;6.07;;;7.00;92.70;;;;;;5008790;28;20038;-79
2021/10/25 01:02:20;;;;;;;8.60;5.13;;;7.00;92.80;;;;;;5009958;28;20037;-79
2021/10/25 01:04:45;;;;;;;9.77;5.68;;;7.00;92.80;;;;;;5009903;28;20061;-79
2021/10/25 01:07:11;;;;;;;12.68;5.75;;;7.00;92.80;;;;;;5008779;28;20096;-79
2021/10/25 01:09:37;;;;;;;9.27;5.97;;;6.90;92.80;;;;;;5008880;28;20026;-79
2021/10/25 01:12:03;;;;;;;9.70;5.68;;;7.00;92.80;;;;;;5008826;28;20030;-79
2021/10/25 01:14:29;;;;;;;6.35;5.18;;;6.90;92.80;;;;;;5010044;28;20410;-79
2021/10/25 01:16:55;;;;;;;8.80;5.10;;;6.90;92.80;;;;;;5008765;28;20037;-78
2021/10/25 01:19:21;;;;;;;9.38;5.82;;;6.90;92.80;;;;;;5010140;28;20026;-79
2021/10/25 01:21:46;;;;;;;9.13;5.22;;;6.90;92.80;;;;;;4992460;28;20057;-78
2021/10/25 01:24:12;;;;;;;8.90;6.07;;;7.00;92.80;;;;;;5009859;28;20509;-79
2021/10/25 01:26:38;;;;;;;12.40;5.88;;;6.90;92.90;;;;;;5008726;28;20086;-79
2021/10/25 01:29:04;;;;;;;8.55;4.80;;;6.90;92.90;;;;;;5009868;28;20022;-79
2021/10/25 01:31:30;;;;;;;10.50;6.00;;;6.90;92.90;;;;;;5010012;28;20046;-78
2021/10/25 01:33:55;;;;;;;12.57;5.72;;;6.90;92.80;;;;;;5009913;28;20056;-78
2021/10/25 01:36:21;;;;;;;8.82;5.30;;;6.90;93.10;;;;;;5009752;28;20049;-78
2021/10/25 01:38:47;;;;;;;9.55;5.57;;;7.00;92.90;;;;;;5008336;28;20022;-78
2021/10/25 01:41:14;;;;;;;9.27;5.90;;;6.90;92.90;;;;;;5009622;28;20033;-78
2021/10/25 01:43:40;;;;;;;9.05;5.75;;;6.90;93.00;;;;;;5008566;28;20075;-80
2021/10/25 01:46:06;;;;;;;7.57;5.43;;;6.90;92.90;;;;;;5000151;28;20049;-78
2021/10/25 01:48:32;;;;;;;10.00;5.95;;;6.90;92.90;;;;;;5008457;28;20030;-79
2021/10/25 01:50:58;;;;;;;10.70;5.63;;;6.90;93.00;;;;;;5009185;28;20064;-79
2021/10/25 01:53:24;;;;;;;9.55;5.60;;;6.90;93.00;;;;;;4991995;28;20093;-79
2021/10/25 01:56:00;;;;;;;10.10;5.47;;;6.90;93.00;;;;;;5008525;28;20479;-78
2021/10/25 01:58:26;;;;;;;12.68;6.85;;;6.90;93.10;;;;;;4992840;28;20390;-79
2021/10/25 02:00:52;;;;;;;9.88;5.72;;;6.90;93.10;;;;;;5009354;28;20060;-78
2021/10/25 02:03:18;;;;;;;12.60;6.13;;;6.90;93.10;;;;;;5009298;28;20030;-79
2021/10/25 02:05:43;;;;;;;9.73;6.22;;;6.80;93.10;;;;;;5007811;28;20544;-78
2021/10/25 02:08:09;;;;;;;8.52;5.07;;;6.80;93.10;;;;;;5008242;28;20026;-79
2021/10/25 02:10:35;;;;;;;11.57;5.22;;;6.90;93.10;;;;;;4992862;28;20067;-79
2021/10/25 02:13:01;;;;;;;7.28;5.57;;;6.80;93.10;;;;;;5010277;28;20608;-79
2021/10/25 02:15:26;;;;;;;10.35;5.38;;;6.80;93.20;;;;;;5009830;28;20057;-78
2021/10/25 02:17:52;;;;;;;10.00;5.40;;;6.80;93.20;;;;;;5009327;28;20042;-79
2021/10/25 02:20:18;;;;;;;8.90;5.20;;;6.80;93.10;;;;;;5010906;28;20505;-78
2021/10/25 02:22:44;;;;;;;10.07;5.07;;;6.80;93.10;;;;;;5012303;28;20433;-79
2021/10/25 02:25:10;;;;;;;13.73;6.40;;;6.70;93.10;;;;;;5011924;28;20065;-78
2021/10/25 02:27:35;;;;;;;7.95;5.10;;;6.70;93.10;;;;;;5011170;28;20057;-78
2021/10/25 02:30:01;;;;;;;11.40;5.15;;;6.70;93.20;;;;;;5011029;28;20022;-78
2021/10/25 02:32:27;;;;;;;11.00;5.40;;;6.70;93.20;;;;;;5012000;28;20030;-78
2021/10/25 02:34:53;;;;;;;9.57;5.70;;;6.70;93.20;;;;;;5011112;28;20564;-78
2021/10/25 02:37:19;;;;;;;11.02;5.38;;;6.70;93.20;;;;;;5011982;28;20394;-78
2021/10/25 02:39:45;;;;;;;10.25;4.82;;;6.70;93.20;;;;;;5012147;28;20065;-79
2021/10/25 02:42:12;;;;;;;12.13;5.40;;;6.60;93.20;;;;;;5010559;28;20486;-79
2021/10/25 02:44:38;;;;;;;9.77;5.32;;;6.60;93.20;;;;;;5011710;28;20086;-78
2021/10/25 02:47:04;;;;;;;8.38;5.15;;;6.60;93.20;;;;;;5029493;28;20037;-78
2021/10/25 02:49:31;;;;;;;9.88;5.45;;;6.60;93.30;;;;;;5013483;28;20033;-78
2021/10/25 02:51:57;;;;;;;6.60;5.07;;;6.60;93.60;;;;;;5031004;28;20030;-78
2021/10/25 02:54:24;;;;;;;11.13;5.55;;;6.60;93.30;;;;;;5030653;28;20173;-78
2021/10/25 02:56:52;;;;;;;9.30;4.88;;;6.60;93.40;;;;;;5030693;28;20082;-78
2021/10/25 02:59:17;;;;;;;7.60;4.82;;;6.60;93.40;;;;;;5030837;28;20025;-78
2021/10/25 03:01:43;;;;;;;8.73;5.13;;;6.60;93.40;;;;;;5011976;28;20036;-78
2021/10/25 03:04:09;;;;;;;9.15;4.60;;;6.60;93.40;;;;;;5012938;28;20030;-78
2021/10/25 03:06:35;;;;;;;10.77;5.85;;;6.60;93.40;;;;;;4995098;28;20421;-78
2021/10/25 03:09:02;;;;;;;7.90;4.88;;;6.60;93.40;;;;;;5029118;28;20025;-79
2021/10/25 03:11:28;;;;;;;9.68;5.70;;;6.70;93.70;;;;;;5028917;28;20509;-78
2021/10/25 03:13:54;;;;;;;10.02;5.28;;;6.60;93.40;;;;;;4995266;28;20034;-78
2021/10/25 03:16:23;;;;;;;5.80;4.15;;;6.60;93.50;;;;;;5029117;28;20457;-78
2021/10/25 03:18:50;;;;;;;11.07;4.70;;;6.60;93.50;;;;;;5028628;28;20094;-78
2021/10/25 03:21:17;;;;;;;7.97;5.45;;;6.60;93.50;;;;;;4994406;28;20045;-78
2021/10/25 03:23:44;;;;;;;12.00;5.70;;;6.60;93.60;;;;;;5013251;28;20032;-79
2021/10/25 03:26:10;;;;;;;7.30;4.68;;;6.60;93.70;;;;;;5013764;28;20034;-78
2021/10/25 03:28:35;;;;;;;9.25;5.35;;;6.60;93.70;;;;;;5031367;28;20032;-79
2021/10/25 03:31:01;;;;;;;7.28;4.82;;;6.60;93.80;;;;;;5031145;28;20025;-78
2021/10/25 03:33:29;;;;;;;7.18;4.18;;;6.60;93.80;;;;;;5031150;28;20052;-79
2021/10/25 03:35:54;;;;;;;8.90;5.28;;;6.60;93.80;;;;;;5031369;28;20036;-78
2021/10/25 03:38:21;;;;;;;10.55;5.18;;;6.60;93.80;;;;;;5031367;28;20033;-78
2021/10/25 03:40:50;;;;;;;9.75;5.03;;;6.60;93.80;;;;;;5031294;28;20116;-78
2021/10/25 03:43:17;;;;;;;6.30;4.22;;;6.60;93.80;;;;;;5013667;28;20474;-78
2021/10/25 03:45:52;;;;;;;12.00;4.80;;;6.60;93.80;;;;;;5031156;28;20072;-78
2021/10/25 03:48:42;;;;;;;13.52;5.75;;;6.60;93.80;;;;;;5050211;28;20021;-78
2021/10/25 03:51:10;;;;;;;11.00;5.28;;;6.60;93.80;;;;;;5031088;28;20485;-79
2021/10/25 03:53:41;;;;;;;11.25;5.60;;;6.60;94.10;;;;;;5031348;28;20026;-78
2021/10/25 03:56:15;;;;;;;9.13;4.88;;;6.70;93.90;;;;;;4997872;28;20094;-79
2021/10/25 04:27:53;;;;;;;11.30;5.68;;;6.90;94.20;;;;;;5030466;28;20061;-79
2021/10/25 04:30:20;;;;;;;8.85;4.60;;;6.80;94.30;;;;;;5030337;28;20104;-79
2021/10/25 04:32:46;;;;;;;7.00;4.15;;;6.80;94.20;;;;;;5030023;28;20763;-79
2021/10/25 04:35:12;;;;;;;10.13;5.72;;;6.80;94.30;;;;;;5030172;28;20064;-79
2021/10/25 04:37:38;;;;;;;8.57;5.25;;;6.80;94.30;;;;;;5018522;28;20052;-79
2021/10/25 04:40:05;;;;;;;13.50;5.47;;;6.80;94.30;;;;;;5050253;28;20037;-79
2021/10/25 04:42:33;;;;;;;11.32;5.13;;;6.70;94.30;;;;;;5047394;28;20447;-79
2021/10/25 04:44:59;;;;;;;9.43;5.85;;;6.70;94.30;;;;;;5015155;28;20074;-78
2021/10/25 04:47:25;;;;;;;8.18;4.95;;;6.70;94.30;;;;;;5048165;28;20116;-79
2021/10/25 04:49:52;;;;;;;9.77;5.68;;;6.70;94.40;;;;;;5029141;28;20025;-79
2021/10/25 04:52:17;;;;;;;8.20;5.28;;;6.70;94.40;;;;;;5028838;28;20021;-79
2021/10/25 04:54:43;;;;;;;9.40;5.78;;;6.70;94.40;;;;;;4995160;28;20029;-79
2021/10/25 04:57:09;;;;;;;9.02;5.32;;;6.70;94.30;;;;;;5028915;28;20441;-79
2021/10/25 04:59:36;;;;;;;9.48;5.00;;;6.70;94.30;;;;;;4995129;28;20057;-79
2021/10/25 05:02:02;;;;;;;9.65;4.60;;;6.60;94.30;;;;;;5011625;28;20030;-79
2021/10/25 05:04:28;;;;;;;13.00;4.85;;;6.70;94.30;;;;;;5030555;28;20110;-79
2021/10/25 05:06:54;;;;;;;9.95;5.20;;;6.70;94.50;;;;;;5010989;28;20032;-79
2021/10/25 05:09:19;;;;;;;9.73;5.20;;;6.60;94.20;;;;;;5028903;28;20545;-78
2021/10/25 05:11:45;;;;;;;9.82;5.18;;;6.50;94.10;;;;;;5010362;28;20385;-79
2021/10/25 05:14:11;;;;;;;9.43;5.50;;;6.50;94.20;;;;;;5051371;27;20033;-79
2021/10/25 05:16:37;;;;;;;7.07;4.68;;;6.50;94.40;;;;;;5011137;28;20057;-78
2021/10/25 05:19:03;;;;;;;11.38;5.43;;;6.50;94.20;;;;;;5025518;28;20034;-78
2021/10/25 05:21:28;;;;;;;10.75;6.00;;;6.40;94.20;;;;;;5026120;28;20398;-78
2021/10/25 05:23:54;;;;;;;10.02;5.82;;;6.50;94.20;;;;;;5008184;28;20139;-79
2021/10/25 05:26:20;;;;;;;9.82;5.78;;;6.50;94.20;;;;;;5008802;28;20033;-79
2021/10/25 05:28:46;;;;;;;7.95;5.68;;;6.40;94.20;;;;;;5010756;28;20044;-78
2021/10/25 05:31:12;;;;;;;10.07;5.32;;;6.50;94.30;;;;;;5020796;28;20022;-78
2021/10/25 05:33:41;;;;;;;12.95;6.32;;;6.40;94.20;;;;;;5024141;28;20022;-79
2021/10/25 05:36:08;;;;;;;10.02;5.57;;;6.50;94.30;;;;;;5028240;28;20026;-78
2021/10/25 05:38:38;;;;;;;10.55;5.57;;;6.50;94.30;;;;;;5028711;28;20076;-79
2021/10/25 05:41:04;;;;;;;9.13;5.55;;;6.60;94.30;;;;;;5029306;28;20040;-79
2021/10/25 05:43:31;;;;;;;10.18;5.13;;;6.60;94.30;;;;;;5029004;28;20048;-79
2021/10/25 05:45:57;;;;;;;10.98;5.20;;;6.60;94.30;;;;;;4993343;28;1086100;-78
2021/10/25 05:48:23;;;;;;;9.68;6.10;;;6.50;94.30;;;;;;5029711;28;20124;-79
2021/10/25 05:50:49;;;;;;;8.98;5.18;;;6.60;94.30;;;;;;5087492;28;20058;-79
2021/10/25 05:53:15;;;;;;;11.07;5.63;;;6.50;94.30;;;;;;5084762;28;20033;-79
2021/10/25 05:55:43;;;;;;;17.45;5.95;;;6.60;94.40;;;;;;5101604;28;20033;-78
2021/10/25 05:58:19;;;;;;;12.20;5.78;;;6.60;94.70;;;;;;5100962;28;20032;-79
2021/10/25 06:01:00;;;;;;;10.30;4.93;;;6.60;94.40;;;;;;5100807;28;20044;-78
2021/10/25 06:03:29;;;;;;;10.23;5.00;;;6.60;94.40;;;;;;5031703;28;20064;-79
2021/10/25 06:05:54;;;;;;;9.57;5.68;;;6.60;94.30;;;;;;5032565;28;20041;-78
2021/10/25 06:08:20;;;;;;;9.07;5.85;;;6.60;94.30;;;;;;5101797;28;20040;-78
2021/10/25 06:10:46;;;;;;;11.27;5.53;;;6.70;94.40;;;;;;5101311;28;20404;-79
2021/10/25 06:13:22;;;;;;;12.82;6.60;;;6.60;94.60;;;;;;5101554;28;20053;-79
2021/10/25 06:15:56;;;;;;;14.23;6.10;;;6.60;94.30;;;;;;5032918;28;20060;-79
2021/10/25 06:18:23;;;;;;;11.20;6.15;;;6.70;94.60;;;;;;5085498;28;20125;-78
2021/10/25 06:20:48;;;;;;;10.40;6.40;;;6.60;94.30;;;;;;5100219;28;20109;-76
2021/10/25 06:23:16;;;;;;;8.85;5.95;;;6.70;94.30;;;;;;5098950;28;20124;-76
2021/10/25 06:25:44;;;;;;;10.00;6.82;;;6.70;94.30;;;;;;5029970;28;20033;-76
2021/10/25 06:28:10;;;;;;;8.77;6.00;;;6.60;94.30;;;;;;5097459;28;20461;-76
2021/10/25 06:30:37;;;;;;;13.27;6.20;;;6.60;94.30;;;;;;5075722;28;20086;-75
2021/10/25 06:33:04;;;;;;;8.27;5.63;;;6.60;94.40;;;;;;5010216;28;20018;-75
2021/10/25 06:35:31;;;;;;;10.55;6.10;;;6.70;94.70;;;;;;5009755;28;20099;-75
2021/10/25 06:38:15;;;;;;;11.45;6.32;;;6.70;94.40;;;;;;5009689;28;20495;-75
2021/10/25 06:40:41;;;;;;;13.32;5.65;;;6.80;94.40;;;;;;5009811;28;20125;-75
2021/10/25 06:43:09;;;;;;;9.73;5.88;;;6.70;94.40;;;;;;5025340;28;20113;-75
2021/10/25 06:45:35;;;;;;;12.68;5.80;;;6.80;94.50;;;;;;5029101;28;20098;-75
2021/10/25 06:48:01;;;;;;;12.32;5.97;;;6.80;94.50;;;;;;5100130;28;20030;-75
2021/10/25 06:50:28;;;;;;;13.23;6.40;;;6.90;94.50;;;;;;5099915;28;20389;-76
2021/10/25 06:53:04;;;;;;;8.95;5.47;;;7.00;94.50;;;;;;5099943;28;20815;-76
2021/10/25 06:55:30;;;;;;;16.13;5.60;;;7.10;94.50;;;;;;5030143;28;20109;-76
2021/10/25 06:57:56;;;;;;;11.05;5.75;;;7.20;94.40;;;;;;5099937;28;20450;-76
2021/10/25 07:00:21;;;;;;;15.45;5.78;;;7.40;94.40;;;;;;5099509;28;20078;-76
2021/10/25 07:02:47;;;;;;;8.90;4.80;;;7.40;94.30;;;;;;5083066;28;20030;-76
2021/10/25 07:05:13;;;;;;;9.93;5.68;;;7.60;94.30;;;;;;5099142;28;20030;-76
2021/10/25 07:07:39;;;;;;;7.72;4.63;;;7.70;94.20;;;;;;5031067;28;20077;-76
2021/10/25 07:10:06;;;;;;;10.20;5.43;;;7.70;94.00;;;;;;5099755;28;20029;-75
2021/10/25 07:12:32;;;;;;;9.57;5.03;;;7.90;94.00;;;;;;5100048;28;20033;-76
2021/10/25 07:14:59;;;;;;;8.35;4.75;;;7.90;93.90;;;;;;5099635;28;20033;-76
2021/10/25 07:20:39;;;;;;;11.20;5.53;;;8.00;93.90;;;;;;5096026;28;20029;-75
2021/10/25 08:06:20;;;;;;;11.48;4.53;;;8.80;93.50;;;;;;5025173;28;20378;-76
2021/10/25 08:11:13;;;;;;;6.35;4.30;;;8.90;93.30;;;;;;5009623;28;20113;-76
2021/10/25 08:13:41;;;;;;;7.97;4.05;;;9.00;93.30;;;;;;5012556;28;20466;-75
2021/10/25 08:16:42;;;;;;;7.07;3.88;;;9.10;93.30;;;;;;5014602;28;20034;-76
2021/10/25 08:19:14;;;;;;;7.38;3.97;;;9.20;93.20;;;;;;5011700;28;20042;-76
2021/10/25 08:21:39;;;;;;;8.82;4.13;;;9.30;93.10;;;;;;5023605;28;20825;-76
2021/10/25 08:24:05;;;;;;;7.75;4.60;;;9.40;92.90;;;;;;5009417;28;20075;-76
2021/10/25 08:26:31;;;;;;;6.60;4.18;;;9.40;92.70;;;;;;5014132;28;20031;-76
2021/10/25 08:28:57;;;;;;;10.20;4.30;;;9.50;92.70;;;;;;5023940;28;20088;-76
2021/10/25 08:31:23;;;;;;;6.75;4.15;;;9.60;92.60;;;;;;5012436;28;20066;-76
2021/10/25 08:42:05;;;;;;;7.05;4.70;;;9.70;92.50;;;;;;5038325;28;20079;-77
2021/10/25 08:44:30;;;;;;;9.25;4.32;;;9.70;92.60;;;;;;5026432;28;20022;-77
2021/10/25 08:46:58;;;;;;;5.93;3.88;;;9.70;92.50;;;;;;5028138;28;20387;-77
2021/10/25 08:49:24;;;;;;;11.68;3.90;;;9.80;92.50;;;;;;5027693;28;20032;-77
2021/10/25 08:51:50;;;;;;;9.50;3.75;;;9.90;92.40;;;;;;5027364;28;20028;-77
2021/10/25 08:54:16;;;;;;;9.93;4.22;;;9.90;92.40;;;;;;5027745;28;20032;-77
2021/10/25 08:56:41;;;;;;;7.22;3.60;;;9.90;92.40;;;;;;5008492;28;20033;-78
2021/10/25 08:59:07;;;;;;;5.68;4.25;;;10.00;92.40;;;;;;5027023;28;20068;-77
2021/10/25 09:01:33;;;;;;;9.48;4.50;;;10.00;92.30;;;;;;5009489;28;20511;-77
2021/10/25 09:04:07;;;;;;;9.32;3.53;;;10.10;92.40;;;;;;5025849;28;20026;-77
2021/10/25 09:06:34;;;;;;;10.07;4.20;;;10.20;92.50;;;;;;5027594;28;20037;-77
2021/10/25 09:09:01;;;;;;;11.27;5.10;;;10.20;92.40;;;;;;5009216;28;20418;-77
2021/10/25 09:11:28;;;;;;;6.30;4.50;;;10.30;92.30;;;;;;5026846;28;20029;-77
2021/10/25 09:13:54;;;;;;;9.65;3.88;;;10.40;92.30;;;;;;5041814;28;20034;-77
2021/10/25 09:16:20;;;;;;;13.85;3.65;;;10.40;92.20;;;;;;5026690;28;20034;-77
2021/10/25 09:18:46;;;;;;;6.28;3.60;;;10.40;92.10;;;;;;5015053;28;20066;-77
2021/10/25 09:21:13;;;;;;;8.13;3.97;;;10.50;92.00;;;;;;5029812;28;20106;-77
2021/10/25 09:23:45;;;;;;;11.10;3.92;;;10.50;91.90;;;;;;5013803;28;20073;-77
2021/10/25 09:26:13;;;;;;;7.93;3.50;;;10.60;91.90;;;;;;5031210;28;20377;-77
2021/10/25 09:28:54;;;;;;;5.15;3.47;;;10.60;92.00;;;;;;5031294;28;20089;-77
2021/10/25 09:31:28;;;;;;;10.32;3.58;;;10.70;92.00;;;;;;5030200;28;20024;-77
2021/10/25 09:34:05;;;;;;;5.68;3.47;;;10.70;91.80;;;;;;5011770;28;20025;-77
2021/10/25 09:36:35;;;;;;;6.28;3.40;;;10.80;91.80;;;;;;5029595;28;20036;-77
2021/10/25 09:42:13;;;;;;;10.35;3.78;;;11.00;91.80;;;;;;5030042;28;20050;-77
2021/10/25 09:49:56;;;;;;;8.90;3.45;;;11.20;91.30;;;;;;5029124;28;20171;-77
2021/10/25 09:52:41;;;;;;;7.90;3.33;;;11.20;91.20;;;;;;5013616;28;20410;-77
2021/10/25 09:55:13;;;;;;;7.45;3.15;;;11.30;91.00;;;;;;5029312;28;20392;-77
2021/10/25 09:58:03;;;;;;;18.75;4.05;;;11.30;91.10;;;;;;5011732;28;20018;-77
2021/10/25 10:00:29;;;;;;;10.70;3.35;;;11.30;91.10;;;;;;5016071;28;20236;-77
2021/10/25 10:02:54;;;;;;;8.70;3.25;;;11.30;91.00;;;;;;5032543;28;20130;-77
2021/10/25 10:05:24;;;;;;;8.20;3.35;;;11.40;91.00;;;;;;4995652;28;20137;-77
2021/10/25 10:07:50;;;;;;;8.40;3.72;;;11.30;90.90;;;;;;5022627;28;20021;-77
2021/10/25 10:10:20;;;;;;;7.63;3.10;;;11.30;90.90;;;;;;5015212;28;20116;-77
2021/10/25 10:12:48;;;;;;;7.80;3.13;;;11.30;90.80;;;;;;5040898;28;20021;-77
2021/10/25 10:15:14;;;;;;;4.60;2.92;;;11.40;90.80;;;;;;5011510;28;20056;-77
2021/10/25 10:17:53;;;;;;;6.10;3.22;;;11.40;90.90;;;;;;4998785;28;20034;-77
2021/10/25 10:20:30;;;;;;;5.32;3.10;;;11.50;90.90;;;;;;5028418;28;20022;-77
2021/10/25 10:22:58;;;;;;;7.47;3.28;;;11.50;90.70;;;;;;5013176;28;20079;-77
2021/10/25 10:25:46;;;;;;;10.15;3.20;;;11.60;91.00;;;;;;4997599;28;20473;-77
2021/10/25 10:28:15;;;;;;;9.88;3.08;;;11.70;90.70;;;;;;5032720;28;20025;-77
2021/10/25 10:30:49;;;;;;;7.17;2.87;;;11.70;90.70;;;;;;5032491;28;20036;-77
2021/10/25 10:33:15;;;;;;;6.03;3.10;;;11.80;90.60;;;;;;5014908;28;20371;-77
2021/10/25 10:35:43;;;;;;;8.45;3.22;;;11.80;90.50;;;;;;5015028;28;20112;-77
2021/10/25 10:38:09;;;;;;;5.78;3.20;;;11.90;90.70;;;;;;5015345;28;20032;-77
2021/10/25 10:40:40;;;;;;;7.15;3.42;;;11.90;90.30;;;;;;5015092;28;20109;-77
2021/10/25 10:43:28;;;;;;;5.65;3.10;;;12.00;90.40;;;;;;5014954;28;20549;-77
2021/10/25 10:46:08;;;;;;;10.93;3.25;;;12.00;90.50;;;;;;5014509;28;20066;-77
2021/10/25 10:48:38;;;;;;;13.07;3.60;;;12.10;90.50;;;;;;5015381;28;20026;-76
2021/10/25 10:51:08;;;;;;;6.68;3.38;;;12.10;90.30;;;;;;5014242;28;20040;-77
2021/10/25 10:53:40;;;;;;;3.65;2.92;;;12.10;90.30;;;;;;5014424;28;20024;-77
2021/10/25 10:56:53;;;;;;;5.07;2.65;;;12.10;90.40;;;;;;5036803;28;20757;-78
2021/10/25 11:01:32;;;;;;;5.60;3.30;;;12.20;90.30;;;;;;5014631;28;20044;-76
2021/10/25 11:03:59;;;;;;;9.15;3.28;;;12.20;90.20;;;;;;5013712;28;20025;-76
2021/10/25 11:06:35;;;;;;;4.03;2.80;;;12.30;90.20;;;;;;5031852;28;20116;-77
2021/10/25 11:09:12;;;;;;;7.93;3.60;;;12.30;90.00;;;;;;4997603;28;20082;-79
2021/10/25 11:11:41;;;;;;;7.40;3.10;;;12.40;89.90;;;;;;5013870;28;20018;-79
2021/10/25 11:14:13;;;;;;;5.38;2.70;;;12.50;89.60;;;;;;4997226;28;20025;-79
2021/10/25 11:19:23;;;;;;;8.23;3.20;;;12.60;89.30;;;;;;5030674;28;20385;-80
2021/10/25 11:21:53;;;;;;;9.75;3.35;;;12.60;89.10;;;;;;5029488;28;20042;-80
2021/10/25 11:24:21;;;;;;;6.75;3.45;;;12.60;89.30;;;;;;5013164;28;20546;-80
2021/10/25 11:26:47;;;;;;;7.63;3.22;;;12.60;89.60;;;;;;5030977;28;20072;-80
2021/10/25 11:29:15;;;;;;;5.45;3.45;;;12.60;90.00;;;;;;5013524;28;20053;-80
2021/10/25 11:31:50;;;;;;;6.88;3.10;;;12.60;90.00;;;;;;5030667;28;20493;-80
2021/10/25 11:34:26;;;;;;;9.20;3.22;;;12.50;90.00;;;;;;5013553;28;20061;-80
2021/10/25 11:37:04;;;;;;;6.80;3.25;;;12.50;90.10;;;;;;5030967;28;20108;-80
2021/10/25 11:39:46;;;;;;;6.50;2.90;;;12.50;90.10;;;;;;5013002;28;20478;-80
2021/10/25 11:42:18;;;;;;;6.18;3.15;;;12.50;90.10;;;;;;5030766;28;20037;-80
2021/10/25 11:44:52;;;;;;;7.47;3.35;;;12.60;90.10;;;;;;5013790;28;20125;-80
2021/10/25 11:47:17;;;;;;;6.85;3.00;;;12.60;90.20;;;;;;5031447;28;20045;-80
2021/10/25 11:49:43;;;;;;;5.95;3.03;;;12.60;90.00;;;;;;5013786;28;20035;-80
2021/10/25 11:52:09;;;;;;;6.78;3.20;;;12.60;90.10;;;;;;5031137;28;20435;-80
2021/10/25 11:54:47;;;;;;;9.82;3.05;;;12.60;90.10;;;;;;5013424;28;20033;-80
2021/10/25 11:57:13;;;;;;;10.00;3.10;;;12.70;89.80;;;;;;5031377;28;20526;-80
2021/10/25 11:59:39;;;;;;;10.57;3.00;;;12.60;89.90;;;;;;5013603;28;20029;-80
2021/10/25 12:02:11;;;;;;;5.32;2.47;;;12.70;89.60;;;;;;5013689;28;20036;-80
2021/10/25 12:04:44;;;;;;;5.53;2.78;;;12.70;89.80;;;;;;5031165;28;20081;-80
2021/10/25 12:07:10;;;;;;;5.45;3.28;;;12.70;90.00;;;;;;4996902;28;20047;-80
2021/10/25 12:09:36;;;;;;;8.57;3.17;;;12.70;90.10;;;;;;5013279;28;20090;-80
2021/10/25 12:12:07;;;;;;;5.93;2.70;;;12.70;90.10;;;;;;4996710;28;20474;-80
2021/10/25 12:14:37;;;;;;;6.10;3.05;;;12.70;90.00;;;;;;5013061;28;20067;-80
2021/10/25 12:17:04;;;;;;;4.85;2.65;;;12.80;90.00;;;;;;5013558;28;20577;-80
2021/10/25 12:19:29;;;;;;;8.63;2.50;;;12.80;90.10;;;;;;5013271;28;20481;-80
2021/10/25 12:22:17;;;;;;;7.47;3.15;;;12.90;90.10;;;;;;5030880;28;20025;-80
2021/10/25 12:24:45;;;;;;;7.70;2.83;;;13.00;90.20;;;;;;5013011;28;20025;-80
2021/10/25 12:27:39;;;;;;;8.90;2.85;;;13.00;90.10;;;;;;5030895;28;20024;-80
2021/10/25 12:30:14;;;;;;;5.65;2.60;;;13.00;90.10;;;;;;5017242;28;20030;-80
2021/10/25 12:32:50;;;;;;;13.90;3.00;;;13.10;90.00;;;;;;5013078;28;20029;-80
2021/10/25 12:35:15;;;;;;;6.47;2.40;;;13.10;90.00;;;;;;5012580;28;20101;-80
2021/10/25 12:37:41;;;;;;;6.75;2.80;;;13.10;90.10;;;;;;5013102;28;20136;-80
2021/10/25 12:40:18;;;;;;;5.28;2.53;;;13.20;90.20;;;;;;5046694;28;20119;-80
2021/10/25 12:42:45;;;;;;;5.65;2.28;;;13.20;90.20;;;;;;5012921;28;20124;-80
2021/10/25 12:45:19;;;;;;;4.45;2.45;;;13.20;90.00;;;;;;5012831;28;20458;-80
2021/10/25 12:47:46;;;;;;;7.32;2.30;;;13.30;89.90;;;;;;5030628;28;20026;-80
2021/10/25 12:50:14;;;;;;;3.25;2.40;;;13.30;89.90;;;;;;5030420;28;20036;-80
2021/10/25 12:52:40;;;;;;;9.17;2.43;;;13.40;90.00;;;;;;5030587;28;20045;-79
2021/10/25 12:55:06;;;;;;;5.70;2.40;;;13.40;89.80;;;;;;5030416;28;20071;-79
2021/10/25 12:57:33;;;;;;;6.97;2.28;;;13.50;89.80;;;;;;5030374;28;20064;-79
2021/10/25 13:00:15;;;;;;;7.32;2.60;;;13.50;89.70;;;;;;5012719;28;20036;-79
2021/10/25 13:02:47;;;;;;;8.60;2.67;;;13.50;89.70;;;;;;5012409;28;20040;-80
2021/10/25 13:05:23;;;;;;;5.63;2.20;;;13.50;89.60;;;;;;5029821;28;20022;-80
2021/10/25 13:07:50;;;;;;;5.00;2.20;;;13.60;89.50;;;;;;5029779;28;20363;-79
2021/10/25 13:10:40;;;;;;;5.22;2.00;;;13.60;89.50;;;;;;5011690;28;20527;-80
2021/10/25 13:13:11;;;;;;;4.30;2.20;;;13.60;89.50;;;;;;5014566;28;20405;-80
2021/10/25 13:15:41;;;;;;;10.45;2.40;;;13.60;89.40;;;;;;5010104;28;20113;-80
2021/10/25 13:18:12;;;;;;;;;;;13.60;89.50;;;;;;5020627;28;20026;-80
2021/10/25 13:20:41;;;;;;;5.25;2.20;;;13.60;89.30;;;;;;5012166;28;19909;-80
2021/10/25 13:23:09;;;;;;;3.78;2.10;;;13.60;89.40;;;;;;5029586;28;20026;-80
2021/10/25 13:25:35;;;;;;;4.78;2.08;;;13.60;89.50;;;;;;5012003;28;20038;-80
2021/10/25 13:28:03;;;;;;;7.90;2.50;;;13.60;89.40;;;;;;5011995;28;20449;-80
2021/10/25 13:30:29;;;;;;;3.83;2.17;;;13.60;89.50;;;;;;5029391;28;20037;-80
2021/10/25 13:32:56;;;;;;;5.80;2.25;;;13.60;89.80;;;;;;5010829;28;20030;-80
2021/10/25 13:35:22;;;;;;;6.28;2.40;;;13.60;89.80;;;;;;5028399;28;20021;-80
2021/10/25 13:37:57;;;;;;;8.02;2.25;;;13.60;90.00;;;;;;5010501;28;20033;-80
2021/10/25 13:40:28;;;;;;;4.28;2.10;;;13.50;90.10;;;;;;5028537;28;20029;-81
2021/10/25 13:42:58;;;;;;;5.30;2.10;;;13.50;90.10;;;;;;5029626;28;20063;-81
2021/10/25 13:45:25;;;;;;;4.57;2.40;;;13.50;90.20;;;;;;5029639;28;20045;-80
2021/10/25 13:47:51;;;;;;;5.00;2.47;;;13.50;90.00;;;;;;5029999;28;20078;-80
2021/10/25 13:50:17;;;;;;;5.80;2.38;;;13.50;90.00;;;;;;4995850;28;20029;-80
2021/10/25 13:52:43;;;;;;;5.72;2.65;;;13.60;90.20;;;;;;5029519;28;20029;-81
2021/10/25 13:55:10;;;;;;;7.20;2.50;;;13.60;90.20;;;;;;5029753;28;20025;-81
2021/10/25 13:57:40;;;;;;;4.32;2.25;;;13.60;90.20;;;;;;5029303;28;20029;-81
2021/10/25 14:00:11;;;;;;;6.95;2.30;;;13.70;90.10;;;;;;5029931;28;20108;-80
2021/10/25 14:02:40;;;;;;;4.55;2.50;;;13.80;90.10;;;;;;5029647;28;20420;-80
2021/10/25 14:05:06;;;;;;;4.28;2.20;;;13.80;90.00;;;;;;5030639;28;20033;-80
2021/10/25 14:07:34;;;;;;;3.10;2.00;;;13.90;89.90;;;;;;5032922;28;20033;-80
2021/10/25 14:10:07;;;;;;;6.70;2.58;;;13.90;89.90;;;;;;5015731;28;20036;-80
2021/10/25 14:12:35;;;;;;;5.70;2.40;;;13.90;90.00;;;;;;5015194;28;20049;-80
2021/10/25 14:17:40;;;;;;;5.88;2.60;;;13.80;90.10;;;;;;5016397;28;20037;-80
2021/10/25 14:20:07;;;;;;;8.07;2.88;;;13.80;90.20;;;;;;5030009;28;20416;-80
2021/10/25 14:22:32;;;;;;;3.78;2.30;;;13.80;90.20;;;;;;5029773;28;20043;-80
2021/10/25 14:24:58;;;;;;;6.68;2.22;;;13.80;90.20;;;;;;5029841;28;20030;-80
2021/10/25 14:27:24;;;;;;;4.88;1.92;;;13.80;90.10;;;;;;5030017;28;20055;-80
2021/10/25 14:29:50;;;;;;;8.45;2.03;;;13.80;90.10;;;;;;5031416;28;20397;-81
2021/10/25 14:32:16;;;;;;;5.35;1.95;;;13.80;90.10;;;;;;5031985;28;20021;-80
2021/10/25 14:34:43;;;;;;;6.25;2.30;;;13.80;90.20;;;;;;5031990;28;20057;-80
2021/10/25 14:37:08;;;;;;;5.55;2.25;;;13.80;90.30;;;;;;5014680;28;20041;-80
2021/10/25 14:39:46;;;;;;;8.20;1.90;;;13.80;90.30;;;;;;5014841;28;20030;-80